createdAt,value
2023-03-26T00:02:23.607Z,8.71
2023-03-26T00:04:54.448Z,8.70
2023-03-26T00:07:25.118Z,8.72
2023-03-26T00:09:56.103Z,8.72
2023-03-26T00:12:27.092Z,8.72
2023-03-26T00:14:56.131Z,8.70
2023-03-26T00:17:27.114Z,8.70
2023-03-26T00:19:58.061Z,8.69
2023-03-26T00:22:29.126Z,8.67
2023-03-26T00:24:58.195Z,8.64
2023-03-26T00:27:28.850Z,8.61
2023-03-26T00:29:59.544Z,8.59
2023-03-26T00:32:30.846Z,8.58
2023-03-26T00:35:01.587Z,8.58
2023-03-26T00:37:33.010Z,8.59
2023-03-26T00:40:11.389Z,8.61
2023-03-26T00:42:42.063Z,8.64
2023-03-26T00:45:13.174Z,8.68
2023-03-26T00:47:42.362Z,8.72
2023-03-26T00:50:13.101Z,8.72
2023-03-26T00:52:44.208Z,8.72
2023-03-26T00:55:13.340Z,8.71
2023-03-26T00:57:44.000Z,8.70
2023-03-26T01:00:18.947Z,8.69
2023-03-26T01:02:49.697Z,8.68
2023-03-26T01:05:50.379Z,8.66
2023-03-26T01:08:30.237Z,8.67
2023-03-26T01:11:04.678Z,8.69
2023-03-26T01:13:39.820Z,8.68
2023-03-26T01:16:21.160Z,8.66
2023-03-26T01:18:52.087Z,8.64
2023-03-26T01:21:27.045Z,8.63
2023-03-26T01:24:02.978Z,8.63
2023-03-26T01:27:14.478Z,8.63
2023-03-26T01:29:50.447Z,8.63
2023-03-26T01:32:30.067Z,8.64
2023-03-26T01:35:15.874Z,8.65
2023-03-26T01:37:58.894Z,8.66
2023-03-26T01:40:35.948Z,8.67
2023-03-26T01:43:12.863Z,8.65
2023-03-26T01:45:47.729Z,8.63
2023-03-26T01:48:18.873Z,8.61
2023-03-26T01:50:49.662Z,8.59
2023-03-26T01:53:20.413Z,8.57
2023-03-26T01:55:58.733Z,8.54
2023-03-26T01:58:36.718Z,8.51
2023-03-26T02:01:20.538Z,8.51
2023-03-26T02:03:58.440Z,8.50
2023-03-26T02:06:36.786Z,8.52
2023-03-26T02:09:11.486Z,8.51
2023-03-26T02:11:43.608Z,8.47
2023-03-26T02:14:15.328Z,8.43
2023-03-26T02:16:46.261Z,8.40
2023-03-26T02:19:15.647Z,8.37
2023-03-26T02:21:46.638Z,8.33
2023-03-26T02:24:17.818Z,8.26
2023-03-26T02:26:48.534Z,8.23
2023-03-26T02:29:19.335Z,8.23
2023-03-26T02:31:50.722Z,8.24
2023-03-26T02:34:21.370Z,8.27
2023-03-26T02:36:52.109Z,8.30
2023-03-26T02:39:22.788Z,8.31
2023-03-26T02:41:53.530Z,8.32
2023-03-26T02:44:24.134Z,8.33
2023-03-26T02:46:54.839Z,8.35
2023-03-26T02:49:26.002Z,8.35
2023-03-26T02:51:57.178Z,8.32
2023-03-26T02:54:27.844Z,8.31
2023-03-26T02:56:58.533Z,8.29
2023-03-26T02:59:29.236Z,8.26
2023-03-26T03:01:59.979Z,8.23
2023-03-26T03:04:30.656Z,8.20
2023-03-26T03:07:01.382Z,8.16
2023-03-26T03:09:32.088Z,8.14
2023-03-26T03:12:03.319Z,8.16
2023-03-26T03:14:33.968Z,8.16
2023-03-26T03:17:05.033Z,8.16
2023-03-26T03:19:34.102Z,8.17
2023-03-26T03:22:04.749Z,8.17
2023-03-26T03:24:35.391Z,8.18
2023-03-26T03:27:06.264Z,8.17
2023-03-26T03:29:36.915Z,8.16
2023-03-26T03:32:07.679Z,8.12
2023-03-26T03:34:38.357Z,8.13
2023-03-26T03:37:08.983Z,8.16
2023-03-26T03:39:39.631Z,8.18
2023-03-26T03:42:10.264Z,8.17
2023-03-26T03:44:40.937Z,8.17
2023-03-26T03:47:11.713Z,8.18
2023-03-26T03:49:42.427Z,8.19
2023-03-26T03:52:13.048Z,8.19
2023-03-26T03:54:43.737Z,8.18
2023-03-26T03:57:14.666Z,8.15
2023-03-26T03:59:47.485Z,8.11
2023-03-26T04:02:18.962Z,8.10
2023-03-26T04:04:49.607Z,8.10
2023-03-26T04:07:20.564Z,8.11
2023-03-26T04:09:49.685Z,8.11
2023-03-26T04:12:20.429Z,8.09
2023-03-26T04:14:51.043Z,8.05
2023-03-26T04:17:21.713Z,8.05
2023-03-26T04:19:52.683Z,8.05
2023-03-26T04:22:23.570Z,8.08
2023-03-26T04:24:54.360Z,8.09
2023-03-26T04:27:29.764Z,8.11
2023-03-26T04:30:03.713Z,8.05
2023-03-26T04:32:34.972Z,8.00
2023-03-26T04:35:11.425Z,7.91
2023-03-26T04:37:43.966Z,7.84
2023-03-26T04:40:18.933Z,7.78
2023-03-26T04:42:49.707Z,7.72
2023-03-26T04:45:20.751Z,7.62
2023-03-26T04:47:54.460Z,7.54
2023-03-26T04:50:32.914Z,7.44
2023-03-26T04:53:03.532Z,7.43
2023-03-26T04:55:39.824Z,7.45
2023-03-26T04:58:10.705Z,7.45
2023-03-26T05:00:40.430Z,7.44
2023-03-26T05:03:12.459Z,7.41
2023-03-26T05:05:44.608Z,7.41
2023-03-26T05:08:15.338Z,7.42
2023-03-26T05:10:46.168Z,7.43
2023-03-26T05:13:16.809Z,7.47
2023-03-26T05:15:47.495Z,7.52
2023-03-26T05:18:18.097Z,7.60
2023-03-26T05:20:48.769Z,7.66
2023-03-26T05:23:19.393Z,7.76
2023-03-26T05:25:50.165Z,7.87
2023-03-26T05:28:21.128Z,7.90
2023-03-26T05:30:52.583Z,7.89
2023-03-26T05:33:24.672Z,7.93
2023-03-26T05:36:03.487Z,7.97
2023-03-26T05:38:34.503Z,7.98
2023-03-26T05:41:08.059Z,7.98
2023-03-26T05:43:38.721Z,7.99
2023-03-26T05:46:09.789Z,7.99
2023-03-26T05:48:39.169Z,8.02
2023-03-26T05:51:10.099Z,8.02
2023-03-26T05:53:40.749Z,8.03
2023-03-26T05:56:13.297Z,8.03
2023-03-26T05:58:43.968Z,8.01
2023-03-26T06:01:21.786Z,8.03
2023-03-26T06:03:52.625Z,8.09
2023-03-26T06:06:23.399Z,8.18
2023-03-26T06:09:01.535Z,8.25
2023-03-26T06:11:33.498Z,8.32
2023-03-26T06:14:04.189Z,8.35
2023-03-26T06:16:34.963Z,8.37
2023-03-26T06:19:05.689Z,8.40
2023-03-26T06:21:36.449Z,8.46
2023-03-26T06:24:09.332Z,8.47
2023-03-26T06:26:40.019Z,8.52
2023-03-26T06:29:10.767Z,8.61
2023-03-26T06:31:41.886Z,8.73
2023-03-26T06:34:10.935Z,8.80
2023-03-26T06:36:41.658Z,8.81
2023-03-26T06:39:12.349Z,8.82
2023-03-26T06:41:43.016Z,8.81
2023-03-26T06:44:13.879Z,8.85
2023-03-26T06:46:44.768Z,8.90
2023-03-26T06:49:15.508Z,8.92
2023-03-26T06:51:46.203Z,8.92
2023-03-26T06:54:16.934Z,8.98
2023-03-26T06:56:47.686Z,8.96
2023-03-26T06:59:18.585Z,8.98
2023-03-26T07:02:09.306Z,8.99
2023-03-26T07:04:40.403Z,9.00
2023-03-26T07:07:11.155Z,9.05
2023-03-26T07:09:41.992Z,9.12
2023-03-26T07:12:12.625Z,9.20
2023-03-26T07:14:43.631Z,9.18
2023-03-26T07:17:12.751Z,9.17
2023-03-26T07:23:34.829Z,9.43
2023-03-26T07:26:22.436Z,9.60
2023-03-26T07:29:04.498Z,9.80
2023-03-26T07:31:47.812Z,9.91
2023-03-26T07:34:34.272Z,10.06
2023-03-26T07:37:11.088Z,10.23
2023-03-26T07:39:57.076Z,10.37
2023-03-26T07:42:40.102Z,10.41
2023-03-26T07:45:22.309Z,10.39
2023-03-26T07:47:57.069Z,10.29
2023-03-26T07:50:31.352Z,10.30
2023-03-26T07:53:02.890Z,10.32
2023-03-26T07:55:36.131Z,10.35
2023-03-26T07:58:21.187Z,10.37
2023-03-26T08:00:56.985Z,10.27
2023-03-26T08:03:41.024Z,10.21
2023-03-26T08:06:22.165Z,10.32
2023-03-26T08:09:00.102Z,10.52
2023-03-26T08:11:40.841Z,10.71
2023-03-26T08:14:24.829Z,10.94
2023-03-26T08:17:05.398Z,11.03
2023-03-26T08:19:48.382Z,11.00
2023-03-26T08:22:23.354Z,11.03
2023-03-26T08:25:04.219Z,11.20
2023-03-26T08:27:39.454Z,11.34
2023-03-26T08:30:18.935Z,11.42
2023-03-26T08:32:54.473Z,11.73
2023-03-26T08:35:26.573Z,11.89
2023-03-26T08:37:57.489Z,11.81
2023-03-26T08:40:51.405Z,11.80
2023-03-26T08:43:41.310Z,11.72
2023-03-26T08:46:34.861Z,11.78
2023-03-26T08:49:31.156Z,11.87
2023-03-26T08:52:34.841Z,11.92
2023-03-26T08:55:33.627Z,12.00
2023-03-26T08:58:35.719Z,12.21
2023-03-26T09:01:56.500Z,12.54
2023-03-26T09:04:58.929Z,12.63
2023-03-26T09:07:52.077Z,12.39
2023-03-26T09:10:51.059Z,12.05
2023-03-26T09:13:53.302Z,11.63
2023-03-26T09:16:39.373Z,11.34
2023-03-26T09:19:40.209Z,11.09
2023-03-26T09:22:43.322Z,10.88
2023-03-26T09:25:38.668Z,10.85
2023-03-26T09:28:34.478Z,10.96
2023-03-26T09:31:45.179Z,11.31
2023-03-26T09:34:30.500Z,11.78
2023-03-26T09:37:18.209Z,12.18
2023-03-26T09:40:04.255Z,12.32
2023-03-26T09:43:00.326Z,12.23
2023-03-26T09:45:50.073Z,12.20
2023-03-26T09:49:13.960Z,12.25
2023-03-26T09:51:56.323Z,12.37
2023-03-26T09:54:51.096Z,12.53
2023-03-26T09:57:35.390Z,12.66
2023-03-26T10:00:31.278Z,12.64
2023-03-26T10:03:18.776Z,12.78
2023-03-26T10:05:58.894Z,12.89
2023-03-26T10:08:55.791Z,12.92
2023-03-26T10:11:39.301Z,13.10
2023-03-26T10:14:19.704Z,13.44
2023-03-26T10:17:06.728Z,13.61
2023-03-26T10:20:00.257Z,13.61
2023-03-26T10:22:46.676Z,13.66
2023-03-26T10:25:29.243Z,13.63
2023-03-26T10:28:09.831Z,13.64
2023-03-26T10:31:05.574Z,13.57
2023-03-26T10:33:50.185Z,13.07
2023-03-26T10:36:30.905Z,12.76
2023-03-26T10:39:36.942Z,12.55
2023-03-26T10:42:23.410Z,12.19
2023-03-26T10:45:14.456Z,11.96
2023-03-26T10:48:00.121Z,11.79
2023-03-26T10:50:44.045Z,11.68
2023-03-26T10:53:27.356Z,11.62
2023-03-26T10:56:19.784Z,11.43
2023-03-26T11:02:30.066Z,11.40
2023-03-26T11:05:26.186Z,11.45
2023-03-26T11:08:02.053Z,11.41
2023-03-26T11:10:45.126Z,11.28
2023-03-26T11:13:31.836Z,11.21
2023-03-26T11:16:09.569Z,11.26
2023-03-26T11:18:48.863Z,11.35
2023-03-26T11:21:24.779Z,11.49
2023-03-26T11:24:11.394Z,11.63
2023-03-26T11:26:51.775Z,11.85
2023-03-26T11:29:43.401Z,12.15
2023-03-26T11:32:17.502Z,12.33
2023-03-26T11:34:56.913Z,12.41
2023-03-26T11:37:31.967Z,12.45
2023-03-26T11:40:19.515Z,12.30
2023-03-26T11:42:53.104Z,12.01
2023-03-26T11:45:26.592Z,11.83
2023-03-26T11:48:03.832Z,11.81
2023-03-26T11:51:04.809Z,11.90
2023-03-26T11:53:35.747Z,12.09
2023-03-26T11:56:13.826Z,12.27
2023-03-26T11:59:08.607Z,12.47
2023-03-26T12:01:50.807Z,12.79
2023-03-26T12:04:30.001Z,13.06
2023-03-26T12:07:17.210Z,13.22
2023-03-26T12:09:53.545Z,13.32
2023-03-26T12:12:27.169Z,13.34
2023-03-26T12:14:58.387Z,13.24
2023-03-26T12:17:32.167Z,13.13
2023-03-26T12:21:15.827Z,12.95
2023-03-26T12:23:45.278Z,12.87
2023-03-26T12:26:52.977Z,12.88
2023-03-26T12:31:45.280Z,12.85
2023-03-26T12:34:20.904Z,12.84
2023-03-26T12:36:54.816Z,12.79
2023-03-26T12:40:10.039Z,12.75
2023-03-26T12:44:51.502Z,12.67
2023-03-26T12:45:28.011Z,12.53
2023-03-26T12:48:03.925Z,12.35
2023-03-26T12:50:53.096Z,12.29
2023-03-26T12:53:48.342Z,12.29
2023-03-26T12:56:26.728Z,12.35
2023-03-26T12:59:12.344Z,12.43
2023-03-26T13:02:01.380Z,12.48
2023-03-26T13:05:02.220Z,12.67
2023-03-26T13:07:51.505Z,13.02
2023-03-26T13:18:40.177Z,13.17
2023-03-26T13:23:54.801Z,13.25
2023-03-26T13:24:02.707Z,13.23
2023-03-26T13:26:39.010Z,13.10
2023-03-26T13:29:19.980Z,13.07
2023-03-26T13:31:54.749Z,13.09
2023-03-26T13:34:34.314Z,12.93
2023-03-26T13:37:14.468Z,12.74
2023-03-26T13:39:55.286Z,12.53
2023-03-26T13:42:39.822Z,12.41
2023-03-26T13:45:24.725Z,12.36
2023-03-26T13:48:21.819Z,12.42
2023-03-26T13:51:01.867Z,12.47
2023-03-26T13:53:40.640Z,12.45
2023-03-26T13:56:35.991Z,12.37
2023-03-26T13:59:35.576Z,12.42
2023-03-26T14:02:11.674Z,12.46
2023-03-26T14:04:45.675Z,12.48
2023-03-26T14:07:18.740Z,12.55
2023-03-26T14:09:54.588Z,12.58
2023-03-26T14:12:33.929Z,12.58
2023-03-26T14:15:11.132Z,12.50
2023-03-26T14:17:48.648Z,12.47
2023-03-26T14:20:59.260Z,12.45
2023-03-26T14:23:58.607Z,12.46
2023-03-26T14:26:40.989Z,12.43
2023-03-26T14:29:56.599Z,12.33
2023-03-26T14:32:37.735Z,12.22
2023-03-26T14:35:36.777Z,12.13
2023-03-26T14:38:38.170Z,12.08
2023-03-26T14:41:18.058Z,12.00
2023-03-26T14:44:58.840Z,11.91
2023-03-26T14:47:30.576Z,11.79
2023-03-26T14:50:36.104Z,11.70
2023-03-26T14:53:19.242Z,11.54
2023-03-26T14:56:16.046Z,11.45
2023-03-26T14:59:21.762Z,11.35
2023-03-26T15:02:26.042Z,11.31
2023-03-26T15:05:27.886Z,11.24
2023-03-26T15:08:42.528Z,11.19
2023-03-26T15:11:26.964Z,11.18
2023-03-26T15:14:39.261Z,11.20
2023-03-26T15:17:44.640Z,11.25
2023-03-26T15:20:56.096Z,11.36
2023-03-26T15:23:57.906Z,11.36
2023-03-26T15:26:53.689Z,11.40
2023-03-26T15:33:34.298Z,11.51
2023-03-26T15:36:44.091Z,11.57
2023-03-26T15:39:39.053Z,11.54
2023-03-26T15:42:18.029Z,11.59
2023-03-26T15:44:58.956Z,11.63
2023-03-26T15:48:03.384Z,11.69
2023-03-26T15:50:44.230Z,11.72
2023-03-26T15:53:23.107Z,11.66
2023-03-26T15:56:17.239Z,11.55
2023-03-26T15:58:53.722Z,11.46
2023-03-26T16:01:38.421Z,11.39
2023-03-26T16:04:24.079Z,11.34
2023-03-26T16:07:00.603Z,11.33
2023-03-26T16:09:53.238Z,11.28
2023-03-26T16:12:33.322Z,11.23
2023-03-26T16:15:24.259Z,11.20
2023-03-26T16:18:28.954Z,11.13
2023-03-26T16:21:32.095Z,11.03
2023-03-26T16:24:23.853Z,11.01
2023-03-26T16:27:15.232Z,10.99
2023-03-26T16:30:22.636Z,10.93
2023-03-26T16:32:57.101Z,10.89
2023-03-26T16:36:12.464Z,10.84
2023-03-26T16:38:53.686Z,10.80
2023-03-26T16:41:27.427Z,10.77
2023-03-26T16:44:13.152Z,10.71
2023-03-26T16:46:57.194Z,10.65
2023-03-26T16:50:09.100Z,10.58
2023-03-26T16:52:55.981Z,10.51
2023-03-26T16:55:39.472Z,10.46
2023-03-26T16:58:27.274Z,10.42
2023-03-26T17:01:11.864Z,10.37
2023-03-26T17:03:51.649Z,10.33
2023-03-26T17:06:36.535Z,10.27
2023-03-26T17:09:21.105Z,10.20
2023-03-26T17:12:00.763Z,10.13
2023-03-26T17:14:42.776Z,10.06
2023-03-26T17:17:28.173Z,9.98
2023-03-26T17:20:06.008Z,9.89
2023-03-26T17:22:42.916Z,9.83
2023-03-26T17:25:25.029Z,9.77
2023-03-26T17:28:12.970Z,9.71
2023-03-26T17:31:02.292Z,9.66
2023-03-26T17:33:36.185Z,9.61
2023-03-26T17:36:40.109Z,9.56
2023-03-26T17:40:09.298Z,9.50
2023-03-26T17:43:00.119Z,9.43
2023-03-26T17:45:34.042Z,9.38
2023-03-26T17:48:14.195Z,9.36
2023-03-26T17:50:50.776Z,9.37
2023-03-26T17:53:28.054Z,9.37
2023-03-26T17:56:01.450Z,9.38
2023-03-26T17:58:36.928Z,9.39
2023-03-26T18:01:17.464Z,9.40
2023-03-26T18:03:50.953Z,9.43
2023-03-26T18:06:39.025Z,9.44
2023-03-26T18:09:25.031Z,9.43
2023-03-26T18:12:15.676Z,9.42
2023-03-26T18:15:09.915Z,9.40
2023-03-26T18:17:46.769Z,9.35
2023-03-26T18:20:36.246Z,9.30
2023-03-26T18:23:20.051Z,9.27
2023-03-26T18:25:57.281Z,9.21
2023-03-26T18:28:41.038Z,9.11
2023-03-26T18:31:21.305Z,9.00
2023-03-26T18:33:57.303Z,8.90
2023-03-26T18:36:30.839Z,8.83
2023-03-26T18:39:03.318Z,8.81
2023-03-26T18:41:54.231Z,8.78
2023-03-26T18:44:25.124Z,8.74
2023-03-26T18:46:57.130Z,8.70
2023-03-26T18:49:28.890Z,8.66
2023-03-26T18:51:59.667Z,8.61
2023-03-26T18:54:34.782Z,8.57
2023-03-26T18:57:19.762Z,8.54
2023-03-26T18:59:52.090Z,8.50
2023-03-26T19:02:25.243Z,8.46
2023-03-26T19:04:56.264Z,8.43
2023-03-26T19:07:27.704Z,8.40
2023-03-26T19:10:00.159Z,8.37
2023-03-26T19:12:35.174Z,8.33
2023-03-26T19:15:10.184Z,8.31
2023-03-26T19:17:43.357Z,8.28
2023-03-26T19:20:19.262Z,8.25
2023-03-26T19:22:50.902Z,8.23
2023-03-26T19:25:25.297Z,8.19
2023-03-26T19:27:56.313Z,8.15
2023-03-26T19:30:31.637Z,8.13
2023-03-26T19:33:13.581Z,8.12
2023-03-26T19:35:46.466Z,8.12
2023-03-26T19:38:26.934Z,8.09
2023-03-26T19:40:58.489Z,8.02
2023-03-26T19:43:30.023Z,7.95
2023-03-26T19:46:04.187Z,7.87
2023-03-26T19:48:45.826Z,7.79
2023-03-26T19:51:22.745Z,7.73
2023-03-26T19:53:57.552Z,7.65
2023-03-26T19:56:29.108Z,7.56
2023-03-26T19:58:59.899Z,7.47
2023-03-26T20:01:31.744Z,7.36
2023-03-26T20:04:05.106Z,7.23
2023-03-26T20:06:43.395Z,7.16
2023-03-26T20:09:37.473Z,7.14
2023-03-26T20:12:06.481Z,7.09
2023-03-26T20:14:57.696Z,7.05
2023-03-26T20:17:31.241Z,7.02
2023-03-26T20:20:04.698Z,6.92
2023-03-26T20:22:35.350Z,6.79
2023-03-26T20:27:53.193Z,6.67
2023-03-26T20:30:36.878Z,6.66
2023-03-26T20:33:14.491Z,6.69
2023-03-26T20:35:45.354Z,6.73
2023-03-26T20:38:17.043Z,6.76
2023-03-26T20:40:49.522Z,6.78
2023-03-26T20:43:20.383Z,6.80
2023-03-26T20:45:51.433Z,6.80
2023-03-26T20:48:24.023Z,6.79
2023-03-26T20:51:15.977Z,6.78
2023-03-26T20:54:12.802Z,6.73
2023-03-26T20:56:43.769Z,6.68
2023-03-26T20:59:16.054Z,6.66
2023-03-26T21:01:47.273Z,6.62
2023-03-26T21:04:21.808Z,6.61
2023-03-26T21:06:57.661Z,6.57
2023-03-26T21:09:35.658Z,6.53
2023-03-26T21:12:15.183Z,6.49
2023-03-26T21:14:49.614Z,6.45
2023-03-26T21:17:24.046Z,6.43
2023-03-26T21:19:55.782Z,6.41
2023-03-26T21:23:00.372Z,6.37
2023-03-26T21:25:34.805Z,6.27
2023-03-26T21:28:35.806Z,6.20
2023-03-26T21:31:16.898Z,6.19
2023-03-26T21:33:49.558Z,6.10
2023-03-26T21:36:25.298Z,5.93
2023-03-26T21:39:16.832Z,5.78
2023-03-26T21:42:04.807Z,5.63
2023-03-26T21:44:39.265Z,5.52
2023-03-26T21:47:14.293Z,5.45
2023-03-26T21:50:18.337Z,5.40
2023-03-26T21:52:51.974Z,5.37
2023-03-26T21:55:24.550Z,5.36
2023-03-26T21:58:18.261Z,5.35
2023-03-26T22:01:05.303Z,5.35
2023-03-26T22:03:46.877Z,5.35
2023-03-26T22:06:25.076Z,5.35
2023-03-26T22:09:06.727Z,5.33
2023-03-26T22:11:37.461Z,5.31
2023-03-26T22:14:08.201Z,5.26
2023-03-26T22:16:38.950Z,5.21
2023-03-26T22:19:10.141Z,5.17
2023-03-26T22:21:40.966Z,5.10
2023-03-26T22:24:11.715Z,5.02
2023-03-26T22:26:42.366Z,4.99
2023-03-26T22:29:14.537Z,4.93
2023-03-26T22:31:45.341Z,4.87
2023-03-26T22:34:16.021Z,4.82
2023-03-26T22:36:46.806Z,4.75
2023-03-26T22:39:17.452Z,4.71
2023-03-26T22:41:48.100Z,4.68
2023-03-26T22:44:20.576Z,4.66
2023-03-26T22:46:51.765Z,4.64
2023-03-26T22:49:20.956Z,4.60
2023-03-26T22:51:51.748Z,4.56
2023-03-26T22:54:22.385Z,4.59
2023-03-26T22:56:53.174Z,4.59
2023-03-26T22:59:23.888Z,4.60
2023-03-26T23:01:54.798Z,4.61
2023-03-26T23:04:31.548Z,4.57
2023-03-26T23:07:03.563Z,4.54
2023-03-26T23:09:34.322Z,4.54
2023-03-26T23:12:05.726Z,4.54
2023-03-26T23:14:36.431Z,4.54
2023-03-26T23:17:07.462Z,4.54
2023-03-26T23:19:36.603Z,4.53
2023-03-26T23:22:05.750Z,4.51
2023-03-26T23:24:34.919Z,4.50
2023-03-26T23:27:04.205Z,4.52
2023-03-26T23:29:33.541Z,4.57
2023-03-26T23:32:02.642Z,4.58
2023-03-26T23:34:31.715Z,4.57
2023-03-26T23:37:00.850Z,4.58
2023-03-26T23:39:29.939Z,4.60
2023-03-26T23:41:59.001Z,4.67
2023-03-26T23:44:28.078Z,4.72
2023-03-26T23:46:57.277Z,4.71
2023-03-26T23:49:26.404Z,4.70
2023-03-26T23:51:55.609Z,4.68
2023-03-26T23:54:24.660Z,4.65
2023-03-26T23:56:53.811Z,4.64
2023-03-26T23:59:23.189Z,4.63
